createdAt,value
2018-08-19T00:00:27.842Z,72.49
2018-08-19T00:03:01.199Z,72.78
2018-08-19T00:05:28.461Z,72.94
2018-08-19T00:07:55.791Z,73.20
2018-08-19T00:10:40.622Z,72.89
2018-08-19T00:13:09.194Z,72.59
2018-08-19T00:15:37.301Z,72.77
2018-08-19T00:21:13.894Z,73.58
2018-08-19T00:23:46.625Z,74.00
2018-08-19T00:26:13.925Z,74.02
2018-08-19T00:28:41.159Z,75.22
2018-08-19T00:31:08.390Z,75.55
2018-08-19T00:33:35.654Z,75.87
2018-08-19T00:36:17.579Z,75.47
2018-08-19T00:38:44.804Z,75.87
2018-08-19T00:41:12.079Z,75.29
2018-08-19T00:43:39.287Z,75.75
2018-08-19T00:46:17.358Z,75.53
2018-08-19T00:48:44.586Z,75.05
2018-08-19T00:51:11.827Z,75.09
2018-08-19T00:53:39.032Z,74.95
2018-08-19T00:56:06.287Z,74.74
2018-08-19T00:58:33.513Z,74.55
2018-08-19T01:01:00.777Z,75.52
2018-08-19T01:03:31.306Z,76.03
2018-08-19T01:05:58.603Z,75.71
2018-08-19T01:08:25.821Z,75.35
2018-08-19T01:10:53.066Z,75.92
2018-08-19T01:13:20.310Z,76.17
2018-08-19T01:15:47.620Z,76.71
2018-08-19T01:18:14.963Z,76.68
2018-08-19T01:20:42.249Z,76.19
2018-08-19T01:23:09.503Z,76.06
2018-08-19T01:25:36.772Z,76.10
2018-08-19T01:28:04.068Z,75.14
2018-08-19T01:30:32.644Z,75.36
2018-08-19T01:32:59.901Z,74.87
2018-08-19T01:35:32.848Z,73.87
2018-08-19T01:38:00.259Z,73.29
2018-08-19T01:40:27.850Z,73.15
2018-08-19T01:42:55.129Z,73.00
2018-08-19T01:45:22.450Z,72.40
2018-08-19T01:47:49.687Z,72.46
2018-08-19T01:50:17.757Z,71.92
2018-08-19T01:52:47.923Z,71.75
2018-08-19T01:55:15.267Z,71.61
2018-08-19T01:57:44.957Z,71.54
2018-08-19T02:00:13.021Z,70.37
2018-08-19T02:02:53.561Z,69.74
2018-08-19T02:05:21.066Z,68.21
2018-08-19T02:07:50.478Z,67.85
2018-08-19T02:10:20.404Z,67.56
2018-08-19T02:12:50.135Z,67.02
2018-08-19T02:15:17.467Z,66.67
2018-08-19T02:17:53.218Z,66.85
2018-08-19T02:20:23.584Z,66.79
2018-08-19T02:22:55.398Z,64.65
2018-08-19T02:25:22.690Z,63.23
2018-08-19T02:27:49.992Z,63.33
2018-08-19T02:30:17.231Z,63.41
2018-08-19T02:32:44.559Z,63.79
2018-08-19T02:35:12.862Z,63.28
2018-08-19T02:37:40.207Z,63.12
2018-08-19T02:40:08.463Z,62.92
2018-08-19T02:42:35.823Z,62.98
2018-08-19T02:45:05.767Z,63.05
2018-08-19T02:47:33.724Z,63.26
2018-08-19T02:50:00.962Z,63.39
2018-08-19T02:52:32.102Z,62.77
2018-08-19T02:55:00.827Z,62.59
2018-08-19T02:57:28.926Z,62.33
2018-08-19T03:00:00.093Z,62.30
2018-08-19T03:02:30.522Z,62.23
2018-08-19T03:04:58.503Z,62.06
2018-08-19T03:07:27.078Z,62.50
2018-08-19T03:10:00.117Z,63.28
2018-08-19T03:12:27.795Z,63.47
2018-08-19T03:14:55.393Z,63.13
2018-08-19T03:17:24.899Z,63.51
2018-08-19T03:19:54.824Z,63.17
2018-08-19T03:22:23.375Z,63.00
2018-08-19T03:24:51.114Z,62.95
2018-08-19T03:27:19.159Z,63.03
2018-08-19T03:29:52.269Z,62.61
2018-08-19T03:32:19.601Z,63.08
2018-08-19T03:34:46.868Z,63.09
2018-08-19T03:37:14.607Z,62.63
2018-08-19T03:39:43.879Z,62.92
2018-08-19T03:42:12.204Z,62.77
2018-08-19T03:44:39.443Z,62.84
2018-08-19T03:47:15.293Z,63.14
2018-08-19T03:49:42.575Z,62.80
2018-08-19T03:52:11.229Z,63.55
2018-08-19T03:54:38.461Z,64.57
2018-08-19T03:57:05.727Z,65.41
2018-08-19T03:59:33.017Z,66.36
2018-08-19T04:02:00.322Z,67.32
2018-08-19T04:04:27.558Z,66.84
2018-08-19T04:06:54.883Z,66.06
2018-08-19T04:09:22.140Z,67.34
2018-08-19T04:12:00.772Z,67.10
2018-08-19T04:14:29.047Z,67.13
2018-08-19T04:16:58.805Z,66.55
2018-08-19T04:19:26.752Z,67.04
2018-08-19T04:21:56.984Z,67.10
2018-08-19T04:24:24.237Z,66.81
2018-08-19T04:26:51.538Z,66.38
2018-08-19T04:29:23.385Z,66.48
2018-08-19T04:31:50.683Z,67.03
2018-08-19T04:34:17.981Z,66.91
2018-08-19T04:36:45.305Z,67.35
2018-08-19T04:39:12.562Z,67.52
2018-08-19T04:41:39.838Z,67.18
2018-08-19T04:44:07.180Z,68.38
2018-08-19T04:46:34.481Z,68.60
2018-08-19T04:49:01.771Z,68.32
2018-08-19T04:51:29.076Z,67.35
2018-08-19T04:53:56.371Z,68.38
2018-08-19T04:56:23.625Z,67.71
2018-08-19T04:58:51.867Z,67.62
2018-08-19T05:01:19.162Z,67.21
2018-08-19T05:03:46.485Z,66.62
2018-08-19T05:06:13.962Z,66.35
2018-08-19T05:08:41.215Z,66.28
2018-08-19T05:11:08.496Z,65.58
2018-08-19T05:13:35.798Z,65.36
2018-08-19T05:16:03.091Z,65.06
2018-08-19T05:18:31.843Z,64.47
2018-08-19T05:21:04.735Z,64.40
2018-08-19T05:23:31.994Z,62.99
2018-08-19T05:25:59.336Z,63.07
2018-08-19T05:28:26.659Z,62.28
2018-08-19T05:30:53.935Z,61.63
2018-08-19T05:33:21.247Z,61.20
2018-08-19T05:35:48.463Z,61.00
2018-08-19T05:38:15.730Z,60.39
2018-08-19T05:40:48.772Z,59.75
2018-08-19T05:43:16.091Z,59.60
2018-08-19T05:45:48.958Z,58.94
2018-08-19T05:48:16.270Z,58.50
2018-08-19T05:50:43.558Z,58.61
2018-08-19T05:53:10.877Z,58.46
2018-08-19T05:55:38.234Z,58.00
2018-08-19T05:58:05.485Z,57.22
2018-08-19T06:00:33.149Z,56.82
2018-08-19T06:03:01.735Z,56.25
2018-08-19T06:05:29.567Z,54.89
2018-08-19T06:08:02.377Z,54.73
2018-08-19T06:10:29.911Z,52.90
2018-08-19T06:12:57.484Z,52.43
2018-08-19T06:15:26.112Z,51.57
2018-08-19T06:17:53.395Z,50.73
2018-08-19T06:20:20.667Z,49.91
2018-08-19T06:22:48.866Z,48.18
2018-08-19T06:25:16.120Z,48.15
2018-08-19T06:27:47.203Z,47.20
2018-08-19T06:30:15.248Z,45.14
2018-08-19T06:32:42.544Z,44.45
2018-08-19T06:35:09.876Z,44.79
2018-08-19T06:37:37.158Z,42.90
2018-08-19T06:40:05.873Z,42.14
2018-08-19T06:42:33.095Z,42.44
2018-08-19T06:45:00.356Z,40.78
2018-08-19T06:47:27.609Z,39.82
2018-08-19T06:49:57.202Z,39.58
2018-08-19T06:52:24.988Z,40.51
2018-08-19T06:54:52.497Z,41.63
2018-08-19T06:57:19.951Z,40.50
2018-08-19T06:59:47.219Z,39.85
2018-08-19T07:02:14.515Z,38.74
2018-08-19T07:04:43.171Z,38.27
2018-08-19T07:07:12.550Z,37.31
2018-08-19T07:09:40.211Z,36.55
2018-08-19T07:12:13.062Z,36.46
2018-08-19T07:14:40.318Z,36.28
2018-08-19T07:17:07.604Z,36.07
2018-08-19T07:19:35.804Z,36.62
2018-08-19T07:22:04.160Z,35.20
2018-08-19T07:24:31.923Z,34.71
2018-08-19T07:26:59.179Z,34.39
2018-08-19T07:29:27.971Z,34.58
2018-08-19T07:31:55.830Z,33.78
2018-08-19T07:34:23.064Z,33.89
2018-08-19T07:37:09.329Z,33.82
2018-08-19T07:39:43.504Z,32.25
2018-08-19T07:42:10.931Z,31.24
2018-08-19T07:44:38.320Z,30.48
2018-08-19T07:47:05.602Z,30.40
2018-08-19T07:49:32.886Z,30.22
2018-08-19T07:52:00.136Z,30.63
2018-08-19T07:54:27.346Z,30.42
2018-08-19T07:56:54.591Z,29.83
2018-08-19T07:59:21.850Z,30.26
2018-08-19T08:01:49.085Z,30.99
2018-08-19T08:04:16.446Z,30.58
2018-08-19T08:06:43.695Z,30.70
2018-08-19T08:09:10.969Z,30.41
2018-08-19T08:11:38.255Z,30.53
2018-08-19T08:14:05.670Z,29.88
2018-08-19T08:16:41.255Z,30.29
2018-08-19T08:19:08.503Z,30.24
2018-08-19T08:21:35.929Z,29.81
2018-08-19T08:24:03.055Z,28.74
2018-08-19T08:26:30.519Z,29.63
2018-08-19T08:29:04.138Z,29.41
2018-08-19T08:31:33.139Z,28.51
2018-08-19T08:34:00.389Z,27.32
2018-08-19T08:36:27.767Z,28.15
2018-08-19T08:38:55.001Z,26.72
2018-08-19T08:41:22.263Z,26.27
2018-08-19T08:43:49.483Z,27.13
2018-08-19T08:46:16.756Z,27.55
2018-08-19T08:48:44.003Z,27.75
2018-08-19T08:51:11.264Z,27.35
2018-08-19T08:53:43.084Z,26.77
2018-08-19T08:56:10.468Z,26.46
2018-08-19T08:58:37.764Z,26.31
2018-08-19T09:01:05.031Z,25.91
2018-08-19T09:03:32.255Z,26.20
2018-08-19T09:05:59.559Z,25.74
2018-08-19T09:08:27.275Z,26.02
2018-08-19T09:10:55.218Z,26.21
2018-08-19T09:13:22.482Z,26.95
2018-08-19T09:15:49.755Z,26.75
2018-08-19T09:18:17.018Z,25.90
2018-08-19T09:20:44.255Z,25.78
2018-08-19T09:23:11.612Z,25.28
2018-08-19T09:25:38.796Z,25.93
2018-08-19T09:28:06.069Z,25.61
2018-08-19T09:30:35.653Z,25.41
2018-08-19T09:33:03.177Z,25.14
2018-08-19T09:35:34.781Z,24.18
2018-08-19T09:38:09.079Z,23.86
2018-08-19T09:40:36.889Z,23.98
2018-08-19T09:43:05.047Z,24.37
2018-08-19T09:45:32.569Z,24.55
2018-08-19T09:48:00.526Z,24.62
2018-08-19T09:50:27.641Z,24.17
2018-08-19T09:52:55.684Z,24.46
2018-08-19T09:55:27.579Z,24.21
2018-08-19T09:57:55.368Z,23.73
2018-08-19T10:00:23.370Z,23.40
2018-08-19T10:02:50.624Z,23.81
2018-08-19T10:05:21.371Z,23.56
2018-08-19T10:07:50.628Z,22.71
2018-08-19T10:10:18.145Z,22.43
2018-08-19T10:12:45.413Z,22.43
2018-08-19T10:15:12.654Z,21.55
2018-08-19T10:17:39.947Z,21.70
2018-08-19T10:20:07.187Z,22.23
2018-08-19T10:22:40.393Z,21.44
2018-08-19T10:25:14.134Z,20.16
2018-08-19T10:27:41.528Z,19.82
2018-08-19T10:30:08.766Z,20.39
2018-08-19T10:32:36.053Z,20.18
2018-08-19T10:35:09.125Z,20.83
2018-08-19T10:37:36.416Z,21.19
2018-08-19T10:40:04.246Z,19.95
2018-08-19T10:42:31.580Z,20.21
2018-08-19T10:44:59.954Z,19.69
2018-08-19T10:47:27.195Z,18.85
2018-08-19T10:50:00.147Z,19.92
2018-08-19T10:52:28.874Z,20.99
2018-08-19T10:54:57.390Z,20.44
2018-08-19T10:57:24.679Z,19.90
2018-08-19T10:59:55.041Z,18.84
2018-08-19T11:02:22.611Z,18.53
2018-08-19T11:04:50.010Z,18.14
2018-08-19T11:07:17.507Z,18.34
2018-08-19T11:09:56.539Z,18.53
2018-08-19T11:12:23.791Z,17.70
2018-08-19T11:14:51.070Z,18.04
2018-08-19T11:17:18.322Z,19.26
2018-08-19T11:19:48.622Z,19.67
2018-08-19T11:22:15.846Z,19.25
2018-08-19T11:24:43.099Z,18.44
2018-08-19T11:27:10.320Z,18.02
2018-08-19T11:29:39.446Z,17.66
2018-08-19T11:32:06.766Z,17.89
2018-08-19T11:34:34.087Z,17.68
2018-08-19T11:37:01.337Z,18.55
2018-08-19T11:39:34.244Z,17.79
2018-08-19T11:42:01.531Z,17.91
2018-08-19T11:44:28.764Z,18.13
2018-08-19T11:46:56.029Z,18.23
2018-08-19T11:49:23.521Z,17.87
2018-08-19T11:51:56.538Z,18.24
2018-08-19T11:54:24.546Z,18.20
2018-08-19T11:56:59.506Z,18.05
2018-08-19T11:59:33.146Z,18.17
2018-08-19T12:02:00.402Z,18.59
2018-08-19T12:04:27.665Z,18.21
2018-08-19T12:06:54.929Z,17.68
2018-08-19T12:09:22.166Z,17.23
2018-08-19T12:11:49.419Z,18.37
2018-08-19T12:14:17.634Z,18.96
2018-08-19T12:16:50.691Z,18.24
2018-08-19T12:19:18.770Z,18.04
2018-08-19T12:22:02.106Z,18.46
2018-08-19T12:24:40.054Z,17.94
2018-08-19T12:27:08.781Z,18.46
2018-08-19T12:29:37.136Z,18.66
2018-08-19T12:32:35.194Z,18.15
2018-08-19T12:35:02.539Z,18.25
2018-08-19T12:37:31.167Z,18.79
2018-08-19T12:39:58.985Z,18.07
2018-08-19T12:42:26.920Z,18.37
2018-08-19T12:45:00.500Z,18.40
2018-08-19T12:47:28.181Z,17.72
2018-08-19T12:49:57.696Z,18.18
2018-08-19T12:52:26.977Z,17.46
2018-08-19T12:55:00.091Z,18.10
2018-08-19T12:57:27.332Z,18.16
2018-08-19T13:00:04.019Z,17.98
2018-08-19T13:02:32.419Z,17.82
2018-08-19T13:04:59.835Z,18.01
2018-08-19T13:07:27.106Z,18.85
2018-08-19T13:09:54.367Z,18.17
2018-08-19T13:12:21.606Z,18.99
2018-08-19T13:14:48.858Z,18.55
2018-08-19T13:17:16.116Z,18.14
2018-08-19T13:19:52.667Z,18.21
2018-08-19T13:22:20.079Z,18.04
2018-08-19T13:24:47.439Z,17.84
2018-08-19T13:27:14.668Z,17.91
2018-08-19T13:29:41.911Z,17.99
2018-08-19T13:32:09.160Z,18.57
2018-08-19T13:34:36.411Z,18.07
2018-08-19T13:37:03.766Z,18.60
2018-08-19T13:39:31.031Z,17.94
2018-08-19T13:41:58.268Z,18.07
2018-08-19T13:44:25.522Z,17.53
2018-08-19T13:46:52.803Z,17.64
2018-08-19T13:49:23.307Z,18.31
2018-08-19T13:51:50.940Z,18.03
2018-08-19T13:54:18.520Z,18.25
2018-08-19T13:56:45.869Z,18.40
2018-08-19T13:59:13.519Z,18.85
2018-08-19T14:01:41.006Z,18.65
2018-08-19T14:04:09.070Z,18.31
2018-08-19T14:06:36.334Z,18.97
2018-08-19T14:09:04.773Z,19.54
2018-08-19T14:11:32.018Z,18.99
2018-08-19T14:13:59.312Z,19.44
2018-08-19T14:16:26.578Z,19.32
2018-08-19T14:18:53.837Z,19.81
2018-08-19T14:21:21.102Z,20.26
2018-08-19T14:23:48.306Z,20.39
2018-08-19T14:26:15.566Z,20.73
2018-08-19T14:28:42.762Z,20.83
2018-08-19T14:31:10.005Z,20.81
2018-08-19T14:33:37.238Z,20.92
2018-08-19T14:36:04.473Z,21.53
2018-08-19T14:38:31.744Z,21.63
2018-08-19T14:40:59.015Z,21.20
2018-08-19T14:43:26.302Z,20.77
2018-08-19T14:45:53.510Z,20.59
2018-08-19T14:48:20.762Z,21.01
2018-08-19T14:50:47.991Z,20.32
2018-08-19T14:53:15.240Z,20.73
2018-08-19T14:55:42.491Z,21.17
2018-08-19T14:58:10.470Z,20.95
2018-08-19T15:00:37.743Z,20.83
2018-08-19T15:03:04.978Z,21.76
2018-08-19T15:05:32.229Z,21.61
2018-08-19T15:08:05.880Z,21.75
2018-08-19T15:10:33.905Z,21.51
2018-08-19T15:13:01.615Z,21.15
2018-08-19T15:15:28.840Z,21.53
2018-08-19T15:17:59.138Z,21.51
2018-08-19T15:20:31.050Z,21.44
2018-08-19T15:23:29.108Z,21.69
2018-08-19T15:25:56.375Z,21.10
2018-08-19T15:28:23.583Z,21.30
2018-08-19T15:30:50.878Z,21.37
2018-08-19T15:33:18.789Z,22.17
2018-08-19T15:35:46.111Z,21.58
2018-08-19T15:38:13.354Z,21.66
2018-08-19T15:40:43.279Z,21.73
2018-08-19T15:43:11.482Z,22.54
2018-08-19T15:45:39.047Z,21.46
2018-08-19T15:48:06.951Z,21.39
2018-08-19T15:50:34.213Z,21.91
2018-08-19T15:53:03.098Z,22.06
2018-08-19T15:55:30.278Z,21.93
2018-08-19T15:57:59.083Z,21.81
2018-08-19T16:00:26.363Z,22.42
2018-08-19T16:02:54.104Z,22.52
2018-08-19T16:05:21.340Z,22.55
2018-08-19T16:07:48.672Z,22.05
2018-08-19T16:10:16.305Z,22.72
2018-08-19T16:12:48.176Z,22.54
2018-08-19T16:15:21.280Z,22.52
2018-08-19T16:17:48.586Z,23.26
2018-08-19T16:20:15.920Z,23.17
2018-08-19T16:22:43.230Z,23.03
2018-08-19T16:25:10.659Z,23.04
2018-08-19T16:27:37.951Z,23.34
2018-08-19T16:30:05.665Z,23.66
2018-08-19T16:32:32.968Z,23.92
2018-08-19T16:35:00.473Z,23.90
2018-08-19T16:37:27.824Z,23.66
2018-08-19T16:39:55.080Z,23.53
2018-08-19T16:42:22.388Z,23.98
2018-08-19T16:44:49.729Z,24.19
2018-08-19T16:47:16.935Z,24.48
2018-08-19T16:49:44.200Z,24.44
2018-08-19T16:52:11.463Z,24.74
2018-08-19T16:54:38.844Z,24.44
2018-08-19T16:57:06.216Z,24.34
2018-08-19T16:59:33.421Z,24.69
2018-08-19T17:02:00.927Z,24.82
2018-08-19T17:04:28.183Z,25.12
2018-08-19T17:06:55.444Z,25.47
2018-08-19T17:09:22.682Z,25.64
2018-08-19T17:11:49.947Z,25.62
2018-08-19T17:14:22.198Z,25.61
2018-08-19T17:16:49.493Z,25.95
2018-08-19T17:19:16.758Z,25.51
2018-08-19T17:21:44.000Z,26.18
2018-08-19T17:24:11.248Z,26.59
2018-08-19T17:26:38.571Z,26.56
2018-08-19T17:29:11.513Z,25.95
2018-08-19T17:31:38.812Z,26.71
2018-08-19T17:34:22.811Z,26.48
2018-08-19T17:36:50.062Z,26.39
2018-08-19T17:39:19.919Z,26.35
2018-08-19T17:41:47.516Z,26.62
2018-08-19T17:44:14.753Z,26.62
2018-08-19T17:46:41.960Z,26.66
2018-08-19T17:49:18.692Z,26.99
2018-08-19T17:51:46.911Z,27.28
2018-08-19T17:54:20.323Z,27.21
2018-08-19T17:56:47.633Z,27.43
2018-08-19T17:59:15.279Z,27.35
2018-08-19T18:01:43.620Z,27.71
2018-08-19T18:04:10.964Z,27.52
2018-08-19T18:06:38.232Z,27.85
2018-08-19T18:11:36.420Z,27.89
2018-08-19T18:14:03.694Z,28.38
2018-08-19T18:16:31.066Z,28.40
2018-08-19T18:18:59.560Z,28.92
2018-08-19T18:21:27.742Z,29.05
2018-08-19T18:23:55.046Z,28.61
2018-08-19T18:26:22.324Z,29.21
2018-08-19T18:28:50.982Z,29.08
2018-08-19T18:31:19.424Z,29.58
2018-08-19T18:34:02.147Z,29.83
2018-08-19T18:36:31.548Z,29.58
2018-08-19T18:39:00.226Z,29.59
2018-08-19T18:41:32.894Z,30.12
2018-08-19T18:44:04.902Z,30.18
2018-08-19T18:46:32.593Z,29.93
2018-08-19T18:49:20.507Z,30.01
2018-08-19T18:51:51.023Z,30.55
2018-08-19T18:54:32.091Z,30.58
2018-08-19T18:57:02.158Z,30.33
2018-08-19T18:59:29.683Z,30.81
2018-08-19T19:01:58.805Z,30.63
2018-08-19T19:04:26.309Z,31.22
2018-08-19T19:06:53.589Z,30.90
2018-08-19T19:09:20.898Z,31.26
2018-08-19T19:11:49.722Z,31.01
2018-08-19T19:14:19.016Z,31.23
2018-08-19T19:16:49.236Z,31.15
2018-08-19T19:19:16.707Z,31.83
2018-08-19T19:21:48.654Z,31.61
2018-08-19T19:24:18.707Z,32.20
2018-08-19T19:26:46.118Z,32.48
2018-08-19T19:29:17.350Z,32.16
2018-08-19T19:31:44.600Z,32.98
2018-08-19T19:34:14.685Z,33.29
2018-08-19T19:36:42.152Z,33.55
2018-08-19T19:39:10.605Z,34.27
2018-08-19T19:41:37.902Z,34.10
2018-08-19T19:44:21.689Z,34.18
2018-08-19T19:46:49.024Z,34.36
2018-08-19T19:49:16.298Z,34.54
2018-08-19T19:51:48.370Z,34.59
2018-08-19T19:54:15.842Z,35.35
2018-08-19T19:56:43.266Z,35.45
2018-08-19T19:59:10.670Z,35.51
2018-08-19T20:01:38.077Z,36.36
2018-08-19T20:04:06.294Z,35.88
2018-08-19T20:06:33.567Z,36.33
2018-08-19T20:09:00.951Z,36.27
2018-08-19T20:11:29.741Z,36.22
2018-08-19T20:13:57.842Z,37.00
2018-08-19T20:16:25.397Z,37.07
2018-08-19T20:18:54.506Z,37.55
2018-08-19T20:21:33.679Z,37.61
2018-08-19T20:24:12.963Z,37.79
2018-08-19T20:26:41.515Z,38.05
2018-08-19T20:29:08.789Z,38.43
2018-08-19T20:31:41.202Z,38.37
2018-08-19T20:34:08.822Z,38.55
2018-08-19T20:36:36.120Z,38.87
2018-08-19T20:39:07.579Z,38.87
2018-08-19T20:41:39.187Z,39.16
2018-08-19T20:44:07.103Z,39.32
2018-08-19T20:46:49.019Z,39.70
2018-08-19T20:49:17.911Z,39.74
2018-08-19T20:51:45.152Z,39.58
2018-08-19T20:54:12.381Z,39.52
2018-08-19T20:56:55.715Z,39.86
2018-08-19T20:59:33.948Z,40.11
2018-08-19T21:02:03.371Z,40.24
2018-08-19T21:04:44.859Z,40.25
2018-08-19T21:07:12.091Z,40.18
2018-08-19T21:09:39.292Z,40.28
2018-08-19T21:12:06.582Z,40.63
2018-08-19T21:14:33.862Z,40.52
2018-08-19T21:17:02.879Z,40.61
2018-08-19T21:19:30.087Z,40.79
2018-08-19T21:21:57.347Z,40.65
2018-08-19T21:24:24.560Z,40.86
2018-08-19T21:26:59.342Z,40.90
2018-08-19T21:29:26.726Z,40.78
2018-08-19T21:31:53.962Z,40.96
2018-08-19T21:34:21.163Z,40.83
2018-08-19T21:36:48.422Z,40.86
2018-08-19T21:39:15.629Z,40.94
2018-08-19T21:41:50.066Z,40.62
2018-08-19T21:44:18.033Z,40.62
2018-08-19T21:46:45.309Z,40.80
2018-08-19T21:49:12.750Z,41.05
2018-08-19T21:51:39.990Z,41.19
2018-08-19T21:54:08.167Z,40.95
2018-08-19T21:56:35.406Z,41.27
2018-08-19T21:59:08.728Z,41.45
2018-08-19T22:01:36.486Z,41.06
2018-08-19T22:04:03.783Z,41.22
2018-08-19T22:06:31.025Z,41.43
2018-08-19T22:08:58.223Z,41.37
2018-08-19T22:11:25.502Z,41.42
2018-08-19T22:13:52.814Z,41.43
2018-08-19T22:16:20.086Z,41.18
2018-08-19T22:18:47.352Z,41.15
2018-08-19T22:21:18.578Z,41.35
2018-08-19T22:23:46.867Z,41.53
2018-08-19T22:26:17.150Z,41.82
2018-08-19T22:28:44.762Z,41.97
2018-08-19T22:31:24.575Z,42.03
2018-08-19T22:33:57.639Z,42.01
2018-08-19T22:36:24.994Z,42.32
2018-08-19T22:38:52.964Z,42.95
2018-08-19T22:41:22.442Z,42.49
2018-08-19T22:43:49.847Z,42.71
2018-08-19T22:46:17.359Z,42.78
2018-08-19T22:48:44.784Z,42.58
2018-08-19T22:51:13.170Z,42.58
2018-08-19T22:53:40.504Z,42.77
2018-08-19T22:56:07.825Z,42.92
2018-08-19T22:58:35.425Z,43.13
2018-08-19T23:01:02.853Z,43.35
2018-08-19T23:03:30.103Z,43.43
2018-08-19T23:05:57.399Z,43.36
2018-08-19T23:08:28.306Z,43.41
2018-08-19T23:10:57.353Z,43.71
2018-08-19T23:13:35.915Z,43.21
2018-08-19T23:16:05.250Z,43.28
2018-08-19T23:18:32.800Z,42.98
2018-08-19T23:21:00.298Z,43.83
2018-08-19T23:23:27.547Z,44.22
2018-08-19T23:25:54.738Z,44.48
2018-08-19T23:28:22.450Z,44.59
2018-08-19T23:30:49.879Z,44.33
2018-08-19T23:33:17.294Z,44.30
2018-08-19T23:35:44.506Z,44.77
2018-08-19T23:38:11.916Z,44.59
2018-08-19T23:40:39.123Z,45.84
2018-08-19T23:43:06.442Z,44.78
2018-08-19T23:45:33.860Z,44.54
2018-08-19T23:48:02.099Z,44.84
2018-08-19T23:50:29.347Z,44.51
2018-08-19T23:52:56.817Z,44.75
2018-08-19T23:55:24.062Z,44.68
2018-08-19T23:57:51.281Z,44.83
